createdAt,value
2024-05-09T00:00:58.019Z,101866.56
2024-05-09T00:04:58.007Z,101866.69
2024-05-09T00:08:57.827Z,101862.44
2024-05-09T00:12:58.186Z,101857.25
2024-05-09T00:16:57.923Z,101858.72
2024-05-09T00:20:58.239Z,101851.25
2024-05-09T00:24:57.951Z,101846.2
2024-05-09T00:28:58.081Z,101846.81
2024-05-09T00:32:58.115Z,101851.2
2024-05-09T00:36:58.042Z,101848.28
2024-05-09T00:44:58.134Z,101841.51000000001
2024-05-09T00:48:58.006Z,101842.6
2024-05-09T00:52:58.617Z,101837.99
2024-05-09T00:56:58.048Z,101833.22
2024-05-09T01:00:58.945Z,101831.76999999999
2024-05-09T01:04:58.091Z,101838.34000000001
2024-05-09T01:08:58.276Z,101829.19
2024-05-09T01:12:58.040Z,101821.47
2024-05-09T01:16:58.433Z,101823.28
2024-05-09T01:20:58.141Z,101808.08
2024-05-09T01:24:58.364Z,101806.92
2024-05-09T01:28:58.203Z,101807.06
2024-05-09T01:32:58.308Z,101805.16
2024-05-09T01:36:58.098Z,101806.97
2024-05-09T01:40:58.305Z,101802.31
2024-05-09T01:44:58.112Z,101805.88
2024-05-09T01:52:58.437Z,101797.91
2024-05-09T01:56:58.184Z,101799.69
2024-05-09T02:00:58.346Z,101811.46
2024-05-09T02:04:58.300Z,101815.28
2024-05-09T02:08:58.253Z,101809.93
2024-05-09T02:12:58.242Z,101811.73999999999
2024-05-09T02:16:58.262Z,101811.92
2024-05-09T02:20:58.250Z,101805.22
2024-05-09T02:24:58.473Z,101810.1
2024-05-09T02:28:58.663Z,101800.99
2024-05-09T02:36:58.450Z,101811.39
2024-05-09T02:40:58.336Z,101802.56000000001
2024-05-09T02:44:58.363Z,101800.37
2024-05-09T02:48:58.425Z,101795.61
2024-05-09T02:52:58.444Z,101792.90999999999
2024-05-09T03:00:58.607Z,101787.15999999999
2024-05-09T03:04:58.456Z,101780.48999999999
2024-05-09T03:08:59.758Z,101772.28
2024-05-09T03:16:58.488Z,101760.13
2024-05-09T03:20:58.462Z,101766.09999999999
2024-05-09T03:24:58.532Z,101782.37000000001
2024-05-09T03:28:58.464Z,101790.12
2024-05-09T03:32:58.762Z,101784.2
2024-05-09T03:40:58.573Z,101792.16
2024-05-09T03:44:58.468Z,101784.74
2024-05-09T03:48:58.632Z,101783.15
2024-05-09T03:52:58.544Z,101780.11
2024-05-09T04:00:58.840Z,101778.16
2024-05-09T04:04:58.558Z,101785.35
2024-05-09T04:08:58.868Z,101777.93000000001
2024-05-09T04:12:58.540Z,101780.02
2024-05-09T04:16:58.653Z,101784.41
2024-05-09T04:20:58.622Z,101782.47
2024-05-09T04:24:58.719Z,101780.48999999999
2024-05-09T04:28:58.650Z,101770.48
2024-05-09T04:32:58.992Z,101773.5
2024-05-09T04:36:58.776Z,101770.64
2024-05-09T04:40:58.854Z,101767.31
2024-05-09T04:44:58.956Z,101767.35
2024-05-09T04:48:58.762Z,101775.59
2024-05-09T04:52:58.794Z,101770.73000000001
2024-05-09T04:56:58.946Z,101778.67
2024-05-09T05:00:58.686Z,101782.7
2024-05-09T05:04:58.885Z,101777.15
2024-05-09T05:16:58.754Z,101778.41
2024-05-09T05:20:58.992Z,101777.26
2024-05-09T05:24:58.877Z,101778.45999999999
2024-05-09T05:28:58.962Z,101773.64
2024-05-09T05:36:58.909Z,101781.34
2024-05-09T05:40:58.928Z,101778.89
2024-05-09T05:44:58.995Z,101778.56
2024-05-09T05:48:58.968Z,101781.37000000001
2024-05-09T05:52:59.001Z,101781.41
2024-05-09T05:56:58.970Z,101773.65999999999
2024-05-09T06:00:58.963Z,101774.63
2024-05-09T06:04:58.953Z,101776.98000000001
2024-05-09T06:08:59.055Z,101778.23
2024-05-09T06:20:59.153Z,101775.92
2024-05-09T06:24:59.067Z,101774.1
2024-05-09T06:29:00.043Z,101773.93
2024-05-09T06:32:59.232Z,101770.73000000001
2024-05-09T06:36:58.978Z,101766.69
2024-05-09T06:40:59.059Z,101768.69
2024-05-09T06:44:59.213Z,101768.40999999999
2024-05-09T06:49:03.086Z,101764.45
2024-05-09T06:52:59.253Z,101760.74
2024-05-09T06:56:59.156Z,101767.22
2024-05-09T07:01:00.277Z,101773.19
2024-05-09T07:04:59.265Z,101768.94
2024-05-09T07:08:59.041Z,101768.08
2024-05-09T07:12:59.289Z,101764.11
2024-05-09T07:16:59.208Z,101757.45
2024-05-09T07:20:59.207Z,101757.78
2024-05-09T07:24:59.084Z,101748.24
2024-05-09T07:29:06.772Z,101748.24
2024-05-09T07:32:59.540Z,101747.34999999999
2024-05-09T07:37:00.891Z,101744.76
2024-05-09T07:40:59.229Z,101741.97
2024-05-09T07:45:14.845Z,101747.85
2024-05-09T07:50:35.812Z,101751.56
2024-05-09T07:56:59.407Z,101751.34000000001
2024-05-09T08:01:01.398Z,101747.91
2024-05-09T08:04:59.312Z,101749.64
2024-05-09T08:09:05.112Z,101750.13
2024-05-09T08:12:59.411Z,101742.98999999999
2024-05-09T08:16:59.630Z,101740.09
2024-05-09T08:20:59.433Z,101739.59999999999
2024-05-09T08:24:59.459Z,101739.94
2024-05-09T08:28:59.260Z,101731.03
2024-05-09T08:32:59.432Z,101728.07
2024-05-09T08:37:03.811Z,101728.77
2024-05-09T08:41:03.156Z,101727.65000000001
2024-05-09T08:44:59.410Z,101717.88
2024-05-09T08:49:02.522Z,101719.31
2024-05-09T08:52:59.376Z,101724.61
2024-05-09T08:57:00.077Z,101722.19
2024-05-09T09:01:02.925Z,101727.15
2024-05-09T09:05:04.532Z,101721.22
2024-05-09T09:09:00.178Z,101724.98000000001
2024-05-09T09:13:03.075Z,101726.2
2024-05-09T09:16:59.434Z,101725.27
2024-05-09T09:20:59.702Z,101725.08
2024-05-09T09:24:59.977Z,101727.39
2024-05-09T09:29:00.641Z,101724.71
2024-05-09T09:32:59.538Z,101716.63
2024-05-09T09:37:03.580Z,101718.94
2024-05-09T09:41:00.405Z,101714.34000000001
2024-05-09T09:45:05.145Z,101714.22
2024-05-09T09:48:59.793Z,101711.51999999999
2024-05-09T09:53:00.040Z,101704.85
2024-05-09T09:57:00.055Z,101701.97
2024-05-09T10:00:59.733Z,101700.81
2024-05-09T10:04:59.706Z,101694.64
2024-05-09T10:09:00.291Z,101692.68
2024-05-09T10:13:02.442Z,101687.59
2024-05-09T10:17:04.020Z,101681.97
2024-05-09T10:20:59.841Z,101682.12
2024-05-09T10:25:05.220Z,101687.67
2024-05-09T10:29:09.095Z,101688.84000000001
2024-05-09T10:32:59.876Z,101683.06
2024-05-09T10:41:00.020Z,101678.92
2024-05-09T10:45:00.913Z,101680.7
2024-05-09T10:53:01.717Z,101673.49
2024-05-09T10:56:59.889Z,101673.49
2024-05-09T11:05:00.676Z,101667.76999999999
2024-05-09T11:08:59.930Z,101665.17
2024-05-09T11:12:59.969Z,101667.47
2024-05-09T11:17:00.500Z,101660.78
2024-05-09T11:20:59.953Z,101660.56999999999
2024-05-09T11:25:00.047Z,101657.7
2024-05-09T11:28:59.901Z,101660.16
2024-05-09T11:33:00.166Z,101654.26999999999
2024-05-09T11:37:00.191Z,101643.05
2024-05-09T11:41:00.472Z,101650.69
2024-05-09T11:45:00.188Z,101648.83
2024-05-09T11:49:00.079Z,101647.22
2024-05-09T11:52:59.911Z,101644.8
2024-05-09T11:57:00.093Z,101637.91
2024-05-09T12:01:00.833Z,101631.25
2024-05-09T12:04:59.984Z,101631.9
2024-05-09T12:09:00.080Z,101622.29999999999
2024-05-09T12:12:59.985Z,101618.53
2024-05-09T12:17:02.637Z,101606.70999999999
2024-05-09T12:21:00.257Z,101610.27
2024-05-09T12:25:03.619Z,101610.32
2024-05-09T12:29:00.208Z,101600.81
2024-05-09T12:33:00.310Z,101603.74
2024-05-09T12:37:00.296Z,101592.98999999999
2024-05-09T12:45:00.169Z,101588.01
2024-05-09T12:49:00.380Z,101583.81000000001
2024-05-09T12:53:00.486Z,101584.28
2024-05-09T12:57:00.085Z,101583.75
2024-05-09T13:01:00.393Z,101576.97
2024-05-09T13:05:00.221Z,101577.4
2024-05-09T13:09:00.295Z,101566.90999999999
2024-05-09T13:13:01.441Z,101561.83
2024-05-09T13:17:00.570Z,101555.95
2024-05-09T13:21:00.133Z,101550.11
2024-05-09T13:25:00.465Z,101545.68000000001
2024-05-09T13:29:00.187Z,101544.94
2024-05-09T13:33:00.412Z,101541.99
2024-05-09T13:37:00.302Z,101539.76
2024-05-09T13:41:00.299Z,101542.71
2024-05-09T13:45:00.252Z,101535.41
2024-05-09T13:49:00.604Z,101534.98
2024-05-09T13:53:00.290Z,101530.26999999999
2024-05-09T13:57:00.381Z,101531.36
2024-05-09T14:01:00.380Z,101527.44
2024-05-09T14:09:03.473Z,101516.97
2024-05-09T14:13:00.463Z,101514.04
2024-05-09T14:17:00.624Z,101512.43
2024-05-09T14:21:01.057Z,101507.09000000001
2024-05-09T14:25:00.467Z,101505.89
2024-05-09T14:29:00.404Z,101496.97
2024-05-09T14:33:00.611Z,101493.9
2024-05-09T14:37:00.639Z,101490.59999999999
2024-05-09T14:41:00.646Z,101484.67000000001
2024-05-09T14:45:01.028Z,101484.92
2024-05-09T14:49:00.662Z,101483.17
2024-05-09T14:53:00.400Z,101478.44
2024-05-09T14:57:00.551Z,101471.77
2024-05-09T15:01:00.630Z,101462.34
2024-05-09T15:05:02.306Z,101460.91
2024-05-09T15:09:00.804Z,101460.24
2024-05-09T15:13:00.924Z,101463.19
2024-05-09T15:17:00.630Z,101461.46
2024-05-09T15:21:01.040Z,101453.45
2024-05-09T15:25:00.513Z,101450.37
2024-05-09T15:29:00.657Z,101448.81
2024-05-09T15:33:02.211Z,101441.38
2024-05-09T15:37:02.622Z,101438.99
2024-05-09T15:41:00.636Z,101431.82
2024-05-09T15:45:00.710Z,101431.22
2024-05-09T15:49:01.159Z,101428.67
2024-05-09T15:53:00.615Z,101424.69
2024-05-09T15:57:00.715Z,101424.51999999999
2024-05-09T16:01:00.872Z,101420.93
2024-05-09T16:05:00.782Z,101422.42
2024-05-09T16:09:01.349Z,101424.99
2024-05-09T16:13:01.053Z,101425.69
2024-05-09T16:17:00.917Z,101420.42
2024-05-09T16:21:00.688Z,101420.79
2024-05-09T16:25:00.750Z,101418.31
2024-05-09T16:29:00.960Z,101416.51000000001
2024-05-09T16:33:00.973Z,101411.53
2024-05-09T16:37:01.046Z,101406.53
2024-05-09T16:41:00.980Z,101403.92
2024-05-09T16:45:00.756Z,101400.73
2024-05-09T16:49:01.569Z,101398.20999999999
2024-05-09T16:53:01.019Z,101397.82
2024-05-09T16:57:01.333Z,101396.94
2024-05-09T17:01:00.919Z,101394.0
2024-05-09T17:05:01.215Z,101393.48
2024-05-09T17:13:01.346Z,101389.06
2024-05-09T17:21:01.169Z,101391.31999999999
2024-05-09T17:25:01.043Z,101390.41
2024-05-09T17:29:01.600Z,101390.22
2024-05-09T17:33:01.657Z,101390.45
2024-05-09T17:37:01.206Z,101389.67
2024-05-09T17:41:00.953Z,101384.76000000001
2024-05-09T17:45:01.172Z,101386.47
2024-05-09T17:49:01.635Z,101382.09000000001
2024-05-09T17:53:01.668Z,101384.75
2024-05-09T17:57:01.248Z,101385.02
2024-05-09T18:01:01.314Z,101386.19
2024-05-09T18:05:01.370Z,101380.67
2024-05-09T18:09:01.172Z,101381.37000000001
2024-05-09T18:13:01.103Z,101387.45
2024-05-09T18:21:01.303Z,101391.04999999999
2024-05-09T18:25:01.188Z,101392.6
2024-05-09T18:29:01.872Z,101387.8
2024-05-09T18:33:01.400Z,101400.81999999999
2024-05-09T18:37:04.326Z,101396.69
2024-05-09T18:41:01.365Z,101403.23
2024-05-09T18:45:01.166Z,101404.11
2024-05-09T18:49:01.252Z,101402.9
2024-05-09T18:53:01.768Z,101403.74
2024-05-09T18:57:01.234Z,101400.59
2024-05-09T19:01:02.067Z,101395.11
2024-05-09T19:05:01.302Z,101404.67
2024-05-09T19:09:01.492Z,101407.51000000001
2024-05-09T19:13:02.837Z,101407.81
2024-05-09T19:17:01.420Z,101411.76000000001
2024-05-09T19:21:01.187Z,101411.92
2024-05-09T19:25:01.488Z,101414.11
2024-05-09T19:29:01.305Z,101409.41
2024-05-09T19:33:01.385Z,101407.95000000001
2024-05-09T19:37:01.458Z,101409.92
2024-05-09T19:41:01.452Z,101405.25
2024-05-09T19:45:01.297Z,101406.41
2024-05-09T19:49:02.241Z,101409.72
2024-05-09T19:53:01.331Z,101390.75
2024-05-09T19:57:02.109Z,101410.64
2024-05-09T20:01:01.456Z,101417.56
2024-05-09T20:05:02.719Z,101420.79
2024-05-09T20:09:01.409Z,101427.25
2024-05-09T20:13:02.111Z,101427.99
2024-05-09T20:17:01.414Z,101424.7
2024-05-09T20:21:01.731Z,101425.36
2024-05-09T20:25:01.439Z,101429.25
2024-05-09T20:29:01.574Z,101428.33
2024-05-09T20:33:03.235Z,101430.22
2024-05-09T20:37:01.598Z,101436.47
2024-05-09T20:41:01.498Z,101443.53
2024-05-09T20:45:01.703Z,101450.19
2024-05-09T20:49:01.595Z,101449.51999999999
2024-05-09T20:53:02.046Z,101448.71
2024-05-09T20:57:01.898Z,101447.51
2024-05-09T21:01:01.702Z,101449.04000000001
2024-05-09T21:05:01.755Z,101450.16
2024-05-09T21:09:01.590Z,101446.94
2024-05-09T21:13:02.893Z,101449.87
2024-05-09T21:17:01.742Z,101448.54000000001
2024-05-09T21:21:01.542Z,101446.89
2024-05-09T21:25:01.761Z,101449.15
2024-05-09T21:29:01.930Z,101446.59
2024-05-09T21:33:01.725Z,101447.45
2024-05-09T21:37:01.902Z,101447.85
2024-05-09T21:41:01.699Z,101446.57999999999
2024-05-09T21:45:01.958Z,101444.47
2024-05-09T21:49:02.209Z,101441.44
2024-05-09T21:53:01.749Z,101446.3
2024-05-09T21:57:04.316Z,101448.27
2024-05-09T22:01:04.105Z,101450.05
2024-05-09T22:05:01.986Z,101451.49
2024-05-09T22:09:04.009Z,101451.67
2024-05-09T22:13:02.050Z,101447.55
2024-05-09T22:17:01.818Z,101449.67
2024-05-09T22:21:01.816Z,101450.9
2024-05-09T22:25:01.797Z,101449.69
2024-05-09T22:29:02.145Z,101450.47
2024-05-09T22:33:01.879Z,101457.17
2024-05-09T22:37:02.384Z,101455.67
2024-05-09T22:41:04.863Z,101455.31
2024-05-09T22:45:01.963Z,101452.86
2024-05-09T22:49:01.932Z,101450.8
2024-05-09T22:53:02.059Z,101448.63
2024-05-09T22:57:02.008Z,101446.61
2024-05-09T23:01:02.080Z,101442.39
2024-05-09T23:05:02.109Z,101441.78
2024-05-09T23:09:01.915Z,101433.83
2024-05-09T23:13:02.605Z,101433.69
2024-05-09T23:17:02.960Z,101429.65000000001
2024-05-09T23:21:01.854Z,101426.98000000001
2024-05-09T23:25:02.415Z,101428.97
2024-05-09T23:29:02.559Z,101436.69
2024-05-09T23:33:02.703Z,101432.69
2024-05-09T23:37:02.095Z,101439.21
2024-05-09T23:41:02.611Z,101437.77
2024-05-09T23:45:02.324Z,101438.83
2024-05-09T23:49:02.195Z,101444.16
2024-05-09T23:53:02.062Z,101436.51999999999
2024-05-09T23:57:02.027Z,101439.69
